createdAt,value
2022-10-03T00:01:46.837Z,20.65
2022-10-03T00:04:40.178Z,20.65
2022-10-03T00:07:54.166Z,20.63
2022-10-03T00:10:46.816Z,20.62
2022-10-03T00:13:34.825Z,20.62
2022-10-03T00:16:14.523Z,20.62
2022-10-03T00:18:52.264Z,20.63
2022-10-03T00:21:49.426Z,20.61
2022-10-03T00:24:50.700Z,20.59
2022-10-03T00:27:39.497Z,20.60
2022-10-03T00:30:23.209Z,20.58
2022-10-03T00:33:33.440Z,20.58
2022-10-03T00:36:32.157Z,20.58
2022-10-03T00:39:25.747Z,20.57
2022-10-03T00:42:22.040Z,20.58
2022-10-03T00:45:19.957Z,20.57
2022-10-03T00:48:05.593Z,20.57
2022-10-03T00:51:04.477Z,20.55
2022-10-03T00:53:33.579Z,20.56
2022-10-03T00:56:15.887Z,20.56
2022-10-03T00:58:53.441Z,20.55
2022-10-03T01:01:46.774Z,20.54
2022-10-03T01:04:30.479Z,20.54
2022-10-03T01:07:20.529Z,20.54
2022-10-03T01:10:11.869Z,20.54
2022-10-03T01:13:14.559Z,20.52
2022-10-03T01:16:22.203Z,20.52
2022-10-03T01:18:55.589Z,20.52
2022-10-03T01:21:53.919Z,20.50
2022-10-03T01:24:48.748Z,20.51
2022-10-03T01:27:29.778Z,20.52
2022-10-03T01:30:23.128Z,20.51
2022-10-03T01:33:12.339Z,20.50
2022-10-03T01:36:12.450Z,20.49
2022-10-03T01:39:15.589Z,20.51
2022-10-03T01:41:59.738Z,20.51
2022-10-03T01:44:58.608Z,20.48
2022-10-03T01:47:29.789Z,20.49
2022-10-03T01:50:20.078Z,20.47
2022-10-03T01:53:05.757Z,20.49
2022-10-03T01:55:46.290Z,20.49
2022-10-03T01:59:13.998Z,20.50
2022-10-03T02:01:55.668Z,20.48
2022-10-03T02:04:49.220Z,20.47
2022-10-03T02:07:55.599Z,20.48
2022-10-03T02:10:50.718Z,20.47
2022-10-03T02:13:41.971Z,20.49
2022-10-03T02:16:33.336Z,20.49
2022-10-03T02:19:22.077Z,20.47
2022-10-03T02:21:53.849Z,20.46
2022-10-03T02:24:39.908Z,20.47
2022-10-03T02:27:14.298Z,20.45
2022-10-03T02:30:12.408Z,20.46
2022-10-03T02:33:05.179Z,20.45
2022-10-03T02:35:57.884Z,20.45
2022-10-03T02:38:47.837Z,20.46
2022-10-03T02:41:39.766Z,20.45
2022-10-03T02:44:20.758Z,20.45
2022-10-03T02:47:09.688Z,20.45
2022-10-03T02:50:15.828Z,20.42
2022-10-03T02:53:09.108Z,20.44
2022-10-03T02:55:43.137Z,20.41
2022-10-03T02:58:35.669Z,20.42
2022-10-03T03:01:25.818Z,20.44
2022-10-03T03:04:20.878Z,20.41
2022-10-03T03:06:53.248Z,20.42
2022-10-03T03:09:54.609Z,20.42
2022-10-03T03:13:07.579Z,20.40
2022-10-03T03:15:57.995Z,20.43
2022-10-03T03:18:38.592Z,20.40
2022-10-03T03:21:42.787Z,20.40
2022-10-03T03:24:15.089Z,20.40
2022-10-03T03:27:13.757Z,20.38
2022-10-03T03:29:47.299Z,20.38
2022-10-03T03:32:50.547Z,20.40
2022-10-03T03:35:20.068Z,20.39
2022-10-03T03:37:54.487Z,20.39
2022-10-03T03:41:13.689Z,20.37
2022-10-03T03:43:55.658Z,20.39
2022-10-03T03:46:37.181Z,20.35
2022-10-03T03:49:23.669Z,20.36
2022-10-03T03:52:19.209Z,20.36
2022-10-03T03:55:03.298Z,20.35
2022-10-03T03:57:56.918Z,20.34
2022-10-03T04:00:47.373Z,20.34
2022-10-03T04:03:27.636Z,20.35
2022-10-03T04:06:26.567Z,20.32
2022-10-03T04:09:17.476Z,20.34
2022-10-03T04:11:53.485Z,20.32
2022-10-03T04:14:46.224Z,20.30
2022-10-03T04:18:06.725Z,20.25
2022-10-03T04:20:56.617Z,20.24
2022-10-03T04:24:05.876Z,20.24
2022-10-03T04:27:00.196Z,20.25
2022-10-03T04:29:40.710Z,20.27
2022-10-03T04:32:18.508Z,20.25
2022-10-03T04:35:14.446Z,20.26
2022-10-03T04:37:50.235Z,20.24
2022-10-03T04:40:39.565Z,20.24
2022-10-03T04:43:41.786Z,20.24
2022-10-03T04:46:31.346Z,20.22
2022-10-03T04:49:12.625Z,20.22
2022-10-03T04:51:41.539Z,20.22
2022-10-03T04:54:16.490Z,20.20
2022-10-03T04:57:00.310Z,20.18
2022-10-03T04:59:40.593Z,20.21
2022-10-03T05:02:35.315Z,20.18
2022-10-03T05:05:15.426Z,20.19
2022-10-03T05:08:18.230Z,20.17
2022-10-03T05:11:06.891Z,20.16
2022-10-03T05:13:57.606Z,20.18
2022-10-03T05:17:04.991Z,20.17
2022-10-03T05:19:49.118Z,20.16
2022-10-03T05:22:41.637Z,20.12
2022-10-03T05:25:28.636Z,20.15
2022-10-03T05:28:45.783Z,20.17
2022-10-03T05:31:54.039Z,20.16
2022-10-03T05:34:39.249Z,20.16
2022-10-03T05:37:25.998Z,20.16
2022-10-03T05:40:04.846Z,20.16
2022-10-03T05:42:55.752Z,20.16
2022-10-03T05:45:31.863Z,20.19
2022-10-03T05:48:24.686Z,20.19
2022-10-03T05:51:13.432Z,20.19
2022-10-03T05:54:12.645Z,20.15
2022-10-03T05:57:02.379Z,20.15
2022-10-03T05:59:37.695Z,20.16
2022-10-03T06:02:24.348Z,20.14
2022-10-03T06:04:59.378Z,20.13
2022-10-03T06:07:50.068Z,20.19
2022-10-03T06:10:44.155Z,20.15
2022-10-03T06:13:31.027Z,20.14
2022-10-03T06:16:13.917Z,20.15
2022-10-03T06:19:00.426Z,20.22
2022-10-03T06:21:47.059Z,20.18
2022-10-03T06:24:52.768Z,20.19
2022-10-03T06:27:52.591Z,20.20
2022-10-03T06:30:40.619Z,20.19
2022-10-03T06:33:30.957Z,20.20
2022-10-03T06:36:18.158Z,20.22
2022-10-03T06:39:12.887Z,20.24
2022-10-03T06:42:12.735Z,20.17
2022-10-03T06:44:59.627Z,20.13
2022-10-03T06:47:40.937Z,20.20
2022-10-03T06:50:42.417Z,20.22
2022-10-03T06:53:45.018Z,20.22
2022-10-03T06:56:25.656Z,20.21
2022-10-03T06:59:05.804Z,20.22
2022-10-03T07:01:55.477Z,20.23
2022-10-03T07:04:36.940Z,20.22
2022-10-03T07:07:23.389Z,20.24
2022-10-03T07:10:10.030Z,20.20
2022-10-03T07:12:47.668Z,20.26
2022-10-03T07:15:59.382Z,20.17
2022-10-03T07:18:56.570Z,20.17
2022-10-03T07:21:40.673Z,20.20
2022-10-03T07:24:34.161Z,20.22
2022-10-03T07:27:05.359Z,20.28
2022-10-03T07:30:05.162Z,20.29
2022-10-03T07:32:56.833Z,20.30
2022-10-03T07:36:08.853Z,20.24
2022-10-03T07:38:59.326Z,20.17
2022-10-03T07:41:33.026Z,20.21
2022-10-03T07:44:40.492Z,20.17
2022-10-03T07:48:25.943Z,20.27
2022-10-03T07:50:59.992Z,20.40
2022-10-03T07:53:43.703Z,20.47
2022-10-03T07:56:43.272Z,20.50
2022-10-03T07:59:40.862Z,20.47
2022-10-03T08:02:28.528Z,20.45
2022-10-03T08:05:28.611Z,20.50
2022-10-03T08:08:22.480Z,20.49
2022-10-03T08:11:03.310Z,20.46
2022-10-03T08:14:08.770Z,20.51
2022-10-03T08:17:22.778Z,20.57
2022-10-03T08:20:05.854Z,20.57
2022-10-03T08:22:54.442Z,20.63
2022-10-03T08:25:40.967Z,20.61
2022-10-03T08:28:21.652Z,20.66
2022-10-03T08:31:32.677Z,20.71
2022-10-03T08:34:22.948Z,20.79
2022-10-03T08:36:56.931Z,20.80
2022-10-03T08:39:44.479Z,20.89
2022-10-03T08:42:37.458Z,21.01
2022-10-03T08:45:08.758Z,21.01
2022-10-03T08:48:02.007Z,20.96
2022-10-03T08:50:53.672Z,20.98
2022-10-03T08:53:48.565Z,20.98
2022-10-03T08:56:36.199Z,20.96
2022-10-03T08:59:35.777Z,21.05
2022-10-03T09:02:22.067Z,21.06
2022-10-03T09:05:15.011Z,21.04
2022-10-03T09:08:08.531Z,21.10
2022-10-03T09:10:37.379Z,21.10
2022-10-03T09:13:24.648Z,21.15
2022-10-03T09:15:59.234Z,21.17
2022-10-03T09:18:58.961Z,21.18
2022-10-03T09:21:42.737Z,21.16
2022-10-03T09:24:51.923Z,21.23
2022-10-03T09:27:20.781Z,21.25
2022-10-03T09:30:05.630Z,21.30
2022-10-03T09:33:24.868Z,21.33
2022-10-03T09:36:25.897Z,21.35
2022-10-03T09:39:19.649Z,21.33
2022-10-03T09:42:07.230Z,21.32
2022-10-03T09:44:54.322Z,21.37
2022-10-03T09:47:44.107Z,21.35
2022-10-03T09:50:53.518Z,21.38
2022-10-03T09:53:53.347Z,21.37
2022-10-03T09:56:57.188Z,21.38
2022-10-03T10:00:00.038Z,21.39
2022-10-03T10:02:47.379Z,21.48
2022-10-03T10:05:36.302Z,21.44
2022-10-03T10:08:14.069Z,21.49
2022-10-03T10:11:04.976Z,21.50
2022-10-03T10:14:13.778Z,21.52
2022-10-03T10:16:48.991Z,21.57
2022-10-03T10:19:42.517Z,21.57
2022-10-03T10:22:41.039Z,21.60
2022-10-03T10:25:33.485Z,21.58
2022-10-03T10:28:24.797Z,21.60
2022-10-03T10:31:12.731Z,21.61
2022-10-03T10:34:12.278Z,21.54
2022-10-03T10:37:19.409Z,21.63
2022-10-03T10:40:29.238Z,21.64
2022-10-03T10:43:27.429Z,21.67
2022-10-03T10:46:22.075Z,21.70
2022-10-03T10:49:15.107Z,21.75
2022-10-03T10:52:01.737Z,21.82
2022-10-03T10:54:43.058Z,21.80
2022-10-03T10:57:50.050Z,21.84
2022-10-03T11:00:59.624Z,21.84
2022-10-03T11:03:53.599Z,21.83
2022-10-03T11:06:46.321Z,21.93
2022-10-03T11:09:21.149Z,22.00
2022-10-03T11:12:14.480Z,22.10
2022-10-03T11:15:04.587Z,22.04
2022-10-03T11:17:40.197Z,22.04
2022-10-03T11:20:52.868Z,22.07
2022-10-03T11:23:41.638Z,22.04
2022-10-03T11:26:48.818Z,22.01
2022-10-03T11:29:23.049Z,22.04
2022-10-03T11:32:29.760Z,21.97
2022-10-03T11:35:19.354Z,22.02
2022-10-03T11:38:08.415Z,21.98
2022-10-03T11:41:04.861Z,22.03
2022-10-03T11:44:01.854Z,22.02
2022-10-03T11:46:55.477Z,22.06
2022-10-03T11:49:42.291Z,22.05
2022-10-03T11:52:35.558Z,22.09
2022-10-03T11:55:31.711Z,22.03
2022-10-03T11:58:32.369Z,22.02
2022-10-03T12:01:14.957Z,22.08
2022-10-03T12:04:02.789Z,22.09
2022-10-03T12:07:09.090Z,22.15
2022-10-03T12:09:57.361Z,22.23
2022-10-03T12:12:39.858Z,22.25
2022-10-03T12:15:45.869Z,22.33
2022-10-03T12:18:19.058Z,22.28
2022-10-03T12:21:21.804Z,22.23
2022-10-03T12:24:18.705Z,22.27
2022-10-03T12:27:13.725Z,22.31
2022-10-03T12:29:48.321Z,22.32
2022-10-03T12:32:33.671Z,22.30
2022-10-03T12:35:09.857Z,22.28
2022-10-03T12:38:08.555Z,22.25
2022-10-03T12:40:50.487Z,22.32
2022-10-03T12:43:39.412Z,22.29
2022-10-03T12:46:35.547Z,22.32
2022-10-03T12:49:35.787Z,22.32
2022-10-03T12:52:21.340Z,22.29
2022-10-03T12:55:09.658Z,22.32
2022-10-03T12:57:46.200Z,22.39
2022-10-03T13:00:43.877Z,22.50
2022-10-03T13:03:39.338Z,22.52
2022-10-03T13:06:44.443Z,22.54
2022-10-03T13:09:36.548Z,22.59
2022-10-03T13:12:37.299Z,22.57
2022-10-03T13:15:36.816Z,22.54
2022-10-03T13:18:35.938Z,22.50
2022-10-03T13:21:40.676Z,22.49
2022-10-03T13:24:07.516Z,22.62
2022-10-03T13:26:57.926Z,22.61
2022-10-03T13:29:27.352Z,22.56
2022-10-03T13:32:27.198Z,22.58
2022-10-03T13:35:32.779Z,22.62
2022-10-03T13:38:47.342Z,22.57
2022-10-03T13:41:28.275Z,22.57
2022-10-03T13:44:17.923Z,22.62
2022-10-03T13:46:57.489Z,22.66
2022-10-03T13:49:36.424Z,22.64
2022-10-03T13:52:41.865Z,22.61
2022-10-03T13:55:43.705Z,22.64
2022-10-03T13:58:23.455Z,22.59
2022-10-03T14:01:17.220Z,22.57
2022-10-03T14:03:57.698Z,22.58
2022-10-03T14:06:37.605Z,22.58
2022-10-03T14:09:24.595Z,22.60
2022-10-03T14:12:15.822Z,22.62
2022-10-03T14:14:44.315Z,22.70
2022-10-03T14:17:34.378Z,22.73
2022-10-03T14:20:19.507Z,22.74
2022-10-03T14:23:06.575Z,22.74
2022-10-03T14:25:49.128Z,22.70
2022-10-03T14:28:26.850Z,22.68
2022-10-03T14:31:24.608Z,22.65
2022-10-03T14:33:53.254Z,22.65
2022-10-03T14:36:34.695Z,22.67
2022-10-03T14:39:33.264Z,22.68
2022-10-03T14:42:16.539Z,22.74
2022-10-03T14:44:48.468Z,22.76
2022-10-03T14:47:20.105Z,22.72
2022-10-03T14:49:59.231Z,22.70
2022-10-03T14:52:38.048Z,22.68
2022-10-03T14:55:15.828Z,22.70
2022-10-03T14:58:09.813Z,22.75
2022-10-03T15:00:46.196Z,22.70
2022-10-03T15:03:17.839Z,22.70
2022-10-03T15:06:02.284Z,22.69
2022-10-03T15:08:49.477Z,22.72
2022-10-03T15:11:24.558Z,22.69
2022-10-03T15:14:03.016Z,22.68
2022-10-03T15:16:35.093Z,22.63
2022-10-03T15:19:20.963Z,22.61
2022-10-03T15:21:52.887Z,22.62
2022-10-03T15:24:26.134Z,22.60
2022-10-03T15:27:09.485Z,22.56
2022-10-03T15:29:39.642Z,22.58
2022-10-03T15:32:24.745Z,22.59
2022-10-03T15:34:56.945Z,22.56
2022-10-03T15:37:33.904Z,22.57
2022-10-03T15:40:13.063Z,22.56
2022-10-03T15:42:50.955Z,22.53
2022-10-03T15:45:29.474Z,22.56
2022-10-03T15:48:02.775Z,22.58
2022-10-03T15:50:41.459Z,22.57
2022-10-03T15:53:36.239Z,22.52
2022-10-03T15:56:18.126Z,22.52
2022-10-03T15:58:56.774Z,22.53
2022-10-03T16:01:33.880Z,22.50
2022-10-03T16:04:06.205Z,22.48
2022-10-03T16:07:05.694Z,22.49
2022-10-03T16:10:19.515Z,22.44
2022-10-03T16:13:37.094Z,22.47
2022-10-03T16:16:32.257Z,22.47
2022-10-03T16:19:03.619Z,22.45
2022-10-03T16:22:11.194Z,22.44
2022-10-03T16:25:27.673Z,22.42
2022-10-03T16:28:07.535Z,22.41
2022-10-03T16:30:48.153Z,22.41
2022-10-03T16:33:27.608Z,22.40
2022-10-03T16:36:01.025Z,22.40
2022-10-03T16:38:36.766Z,22.36
2022-10-03T16:41:32.074Z,22.38
2022-10-03T16:44:05.822Z,22.35
2022-10-03T16:46:40.465Z,22.35
2022-10-03T16:49:45.798Z,22.34
2022-10-03T16:52:16.064Z,22.33
2022-10-03T16:54:47.684Z,22.34
2022-10-03T16:57:20.408Z,22.33
2022-10-03T16:59:52.774Z,22.32
2022-10-03T17:02:25.512Z,22.31
2022-10-03T17:05:01.493Z,22.28
2022-10-03T17:07:40.552Z,22.29
2022-10-03T17:10:26.133Z,22.28
2022-10-03T17:13:03.203Z,22.25
2022-10-03T17:15:35.753Z,22.26
2022-10-03T17:18:13.093Z,22.27
2022-10-03T17:20:48.257Z,22.23
2022-10-03T17:23:36.220Z,22.27
2022-10-03T17:26:46.211Z,22.22
2022-10-03T17:29:24.132Z,22.22
2022-10-03T17:32:02.543Z,22.21
2022-10-03T17:34:32.163Z,22.22
2022-10-03T17:37:49.668Z,22.23
2022-10-03T17:40:41.913Z,22.26
2022-10-03T17:43:30.093Z,22.22
2022-10-03T17:46:17.143Z,22.20
2022-10-03T17:49:07.973Z,22.17
2022-10-03T17:51:39.484Z,22.20
2022-10-03T17:54:20.545Z,22.19
2022-10-03T17:56:54.697Z,22.16
2022-10-03T17:59:30.754Z,22.18
2022-10-03T18:02:07.489Z,22.19
2022-10-03T18:04:41.838Z,22.19
2022-10-03T18:07:23.188Z,22.15
2022-10-03T18:09:55.021Z,22.18
2022-10-03T18:12:54.427Z,22.17
2022-10-03T18:15:35.852Z,22.16
2022-10-03T18:18:25.583Z,22.20
2022-10-03T18:21:10.525Z,22.18
2022-10-03T18:24:21.949Z,22.17
2022-10-03T18:27:17.793Z,22.16
2022-10-03T18:29:57.193Z,22.15
2022-10-03T18:32:30.299Z,22.13
2022-10-03T18:35:01.794Z,22.18
2022-10-03T18:37:31.244Z,22.21
2022-10-03T18:40:00.612Z,22.19
2022-10-03T18:42:30.625Z,22.23
2022-10-03T18:45:00.657Z,22.30
2022-10-03T18:47:39.448Z,22.32
2022-10-03T18:50:27.779Z,22.32
2022-10-03T18:53:15.449Z,22.34
2022-10-03T18:56:04.275Z,22.36
2022-10-03T18:58:58.647Z,22.34
2022-10-03T19:01:53.065Z,22.37
2022-10-03T19:04:44.245Z,22.39
2022-10-03T19:07:20.781Z,22.35
2022-10-03T19:10:31.898Z,22.32
2022-10-03T19:13:07.318Z,22.30
2022-10-03T19:15:50.017Z,22.28
2022-10-03T19:18:27.774Z,22.28
2022-10-03T19:20:59.757Z,22.29
2022-10-03T19:23:42.504Z,22.25
2022-10-03T19:26:19.849Z,22.24
2022-10-03T19:28:51.293Z,22.23
2022-10-03T19:31:28.416Z,22.22
2022-10-03T19:34:04.594Z,22.27
2022-10-03T19:36:36.958Z,22.26
2022-10-03T19:39:06.073Z,22.23
2022-10-03T19:41:53.807Z,22.22
2022-10-03T19:44:27.728Z,22.22
2022-10-03T19:47:19.290Z,22.21
2022-10-03T19:49:56.813Z,22.19
2022-10-03T19:52:33.481Z,22.25
2022-10-03T19:55:12.864Z,22.22
2022-10-03T19:57:43.823Z,22.19
2022-10-03T20:00:15.592Z,22.16
2022-10-03T20:02:45.492Z,22.16
2022-10-03T20:05:56.553Z,22.14
2022-10-03T20:08:45.374Z,22.15
2022-10-03T20:11:40.228Z,22.15
2022-10-03T20:14:20.052Z,22.18
2022-10-03T20:16:49.531Z,22.16
2022-10-03T20:19:23.632Z,22.10
2022-10-03T20:21:54.779Z,22.05
2022-10-03T20:24:38.203Z,21.98
2022-10-03T20:27:33.118Z,21.96
2022-10-03T20:30:04.175Z,21.95
2022-10-03T20:32:36.546Z,21.89
2022-10-03T20:35:06.105Z,21.88
2022-10-03T20:37:52.707Z,21.88
2022-10-03T20:40:39.649Z,21.89
2022-10-03T20:43:27.695Z,21.89
2022-10-03T20:46:19.180Z,21.88
2022-10-03T20:49:14.485Z,21.87
2022-10-03T20:51:57.555Z,21.86
2022-10-03T20:54:34.595Z,21.87
2022-10-03T20:57:18.794Z,21.85
2022-10-03T20:59:48.593Z,21.85
2022-10-03T21:02:38.348Z,21.84
2022-10-03T21:05:34.564Z,21.85
2022-10-03T21:08:24.180Z,21.83
2022-10-03T21:10:59.993Z,21.83
2022-10-03T21:13:49.806Z,21.83
2022-10-03T21:16:30.876Z,21.82
2022-10-03T21:19:02.333Z,21.84
2022-10-03T21:21:43.347Z,21.83
2022-10-03T21:24:16.530Z,21.83
2022-10-03T21:26:53.442Z,21.83
2022-10-03T21:29:24.903Z,21.80
2022-10-03T21:32:31.719Z,21.81
2022-10-03T21:35:06.204Z,21.83
2022-10-03T21:37:53.217Z,21.81
2022-10-03T21:40:58.992Z,21.80
2022-10-03T21:43:36.662Z,21.81
2022-10-03T21:46:21.260Z,21.80
2022-10-03T21:49:08.220Z,21.80
2022-10-03T21:52:05.265Z,21.79
2022-10-03T21:54:52.165Z,21.80
2022-10-03T21:57:31.752Z,21.78
2022-10-03T22:00:15.464Z,21.79
2022-10-03T22:03:08.482Z,21.79
2022-10-03T22:05:57.448Z,21.79
2022-10-03T22:08:35.878Z,21.78
2022-10-03T22:11:33.493Z,21.78
2022-10-03T22:14:26.990Z,21.78
2022-10-03T22:17:26.768Z,21.79
2022-10-03T22:20:22.008Z,21.78
2022-10-03T22:23:05.512Z,21.77
2022-10-03T22:25:56.208Z,21.78
2022-10-03T22:28:49.109Z,21.76
2022-10-03T22:31:34.168Z,21.76
2022-10-03T22:34:24.678Z,21.77
2022-10-03T22:36:53.095Z,21.76
2022-10-03T22:39:22.492Z,21.77
2022-10-03T22:41:54.418Z,21.75
2022-10-03T22:44:25.758Z,21.77
2022-10-03T22:46:57.963Z,21.75
2022-10-03T22:49:31.955Z,21.77
2022-10-03T22:52:02.672Z,21.76
2022-10-03T22:54:35.264Z,21.76
2022-10-03T22:57:09.843Z,21.75
2022-10-03T22:59:58.432Z,21.74
2022-10-03T23:02:36.904Z,21.75
2022-10-03T23:05:16.423Z,21.76
2022-10-03T23:08:08.959Z,21.76
2022-10-03T23:10:53.323Z,21.73
2022-10-03T23:13:35.682Z,21.75
2022-10-03T23:16:54.913Z,21.73
2022-10-03T23:19:30.922Z,21.72
2022-10-03T23:22:00.584Z,21.71
2022-10-03T23:24:44.621Z,21.71
2022-10-03T23:27:31.440Z,21.70
2022-10-03T23:30:12.005Z,21.70
2022-10-03T23:32:49.757Z,21.70
2022-10-03T23:35:32.885Z,21.71
2022-10-03T23:38:01.930Z,21.72
2022-10-03T23:40:36.388Z,21.70
2022-10-03T23:43:30.829Z,21.71
2022-10-03T23:46:02.140Z,21.70
2022-10-03T23:48:32.999Z,21.70
2022-10-03T23:51:06.862Z,21.69
2022-10-03T23:53:39.041Z,21.70
2022-10-03T23:56:35.540Z,21.70
2022-10-03T23:59:03.970Z,21.69
